Pinchbeck, United Kingdom
Current Conditions -  °F | °C
As of 6:50 AM on Friday 31 Oct 2014 (Local Time) from EGXT Reporting Station
Overcast Overcast  
Wind Chill: 57°   Ceiling: 300
Heat Index: 57°   Visibility: 1.7mi
Dew Point: 57°   Wind: 10mph
Humidity: 100%   Direction: 180°S
Pressure: 30"   Gusts: NA
Location:  52.81°N, 0.16°W
Report Text: EGXT 310650Z AUTO 18009KT 2800 // OVC003/// 14/14 Q1016
Loading
Personal Weather Stations






























Interactive Weather Map
Tropical Storm Tracking
New forecast layout! Learn more

10-Day Weather Forecast

Advertisements
Track Severe Weather on mobile